sensor_id;sensor_type;location;lat;lon;timestamp;P1;durP1;ratioP1;P2;durP2;ratioP2
23228;SDS011;11783;50.350;6.576;2023-03-01T00:02:15;10.73;;;6.60;;
23228;SDS011;11783;50.350;6.576;2023-03-01T00:04:41;9.77;;;6.50;;
23228;SDS011;11783;50.350;6.576;2023-03-01T00:07:06;10.00;;;6.70;;
23228;SDS011;11783;50.350;6.576;2023-03-01T00:09:31;11.43;;;6.90;;
23228;SDS011;11783;50.350;6.576;2023-03-01T00:11:57;9.68;;;6.20;;
23228;SDS011;11783;50.350;6.576;2023-03-01T00:14:22;10.05;;;6.55;;
23228;SDS011;11783;50.350;6.576;2023-03-01T00:16:48;12.73;;;7.38;;
23228;SDS011;11783;50.350;6.576;2023-03-01T00:19:15;10.20;;;6.80;;
23228;SDS011;11783;50.350;6.576;2023-03-01T00:21:42;11.88;;;7.45;;
23228;SDS011;11783;50.350;6.576;2023-03-01T00:24:07;11.43;;;6.60;;
23228;SDS011;11783;50.350;6.576;2023-03-01T00:26:33;11.02;;;6.55;;
23228;SDS011;11783;50.350;6.576;2023-03-01T00:28:59;12.23;;;6.82;;
23228;SDS011;11783;50.350;6.576;2023-03-01T00:31:26;12.32;;;7.03;;
23228;SDS011;11783;50.350;6.576;2023-03-01T00:33:58;10.73;;;6.90;;
23228;SDS011;11783;50.350;6.576;2023-03-01T00:36:26;11.18;;;7.15;;
23228;SDS011;11783;50.350;6.576;2023-03-01T00:38:53;10.80;;;7.18;;
23228;SDS011;11783;50.350;6.576;2023-03-01T00:41:18;12.02;;;7.65;;
23228;SDS011;11783;50.350;6.576;2023-03-01T00:43:45;15.43;;;7.10;;
23228;SDS011;11783;50.350;6.576;2023-03-01T00:46:12;8.80;;;5.97;;
23228;SDS011;11783;50.350;6.576;2023-03-01T00:48:39;12.18;;;6.57;;
23228;SDS011;11783;50.350;6.576;2023-03-01T00:51:11;12.18;;;6.97;;
23228;SDS011;11783;50.350;6.576;2023-03-01T00:53:37;11.02;;;6.18;;
23228;SDS011;11783;50.350;6.576;2023-03-01T00:56:04;10.63;;;6.75;;
23228;SDS011;11783;50.350;6.576;2023-03-01T00:58:31;12.15;;;6.82;;
23228;SDS011;11783;50.350;6.576;2023-03-01T01:00:56;10.32;;;6.35;;
23228;SDS011;11783;50.350;6.576;2023-03-01T01:03:22;9.98;;;6.65;;
23228;SDS011;11783;50.350;6.576;2023-03-01T01:05:49;12.25;;;7.68;;
23228;SDS011;11783;50.350;6.576;2023-03-01T01:08:15;10.48;;;7.10;;
23228;SDS011;11783;50.350;6.576;2023-03-01T01:10:43;10.43;;;6.85;;
23228;SDS011;11783;50.350;6.576;2023-03-01T01:13:09;11.27;;;6.50;;
23228;SDS011;11783;50.350;6.576;2023-03-01T01:15:35;11.20;;;6.25;;
23228;SDS011;11783;50.350;6.576;2023-03-01T01:18:00;9.98;;;6.28;;
23228;SDS011;11783;50.350;6.576;2023-03-01T01:20:26;9.45;;;5.93;;
23228;SDS011;11783;50.350;6.576;2023-03-01T01:22:51;11.50;;;6.18;;
23228;SDS011;11783;50.350;6.576;2023-03-01T01:25:17;10.95;;;7.05;;
23228;SDS011;11783;50.350;6.576;2023-03-01T01:27:42;11.73;;;7.20;;
23228;SDS011;11783;50.350;6.576;2023-03-01T01:30:08;12.75;;;7.28;;
23228;SDS011;11783;50.350;6.576;2023-03-01T01:32:34;9.93;;;6.43;;
23228;SDS011;11783;50.350;6.576;2023-03-01T01:34:59;10.13;;;6.45;;
23228;SDS011;11783;50.350;6.576;2023-03-01T01:37:25;12.90;;;7.72;;
23228;SDS011;11783;50.350;6.576;2023-03-01T01:39:56;10.82;;;7.50;;
23228;SDS011;11783;50.350;6.576;2023-03-01T01:42:25;13.18;;;7.50;;
23228;SDS011;11783;50.350;6.576;2023-03-01T01:47:55;11.98;;;7.30;;
23228;SDS011;11783;50.350;6.576;2023-03-01T01:50:25;7.68;;;5.15;;
23228;SDS011;11783;50.350;6.576;2023-03-01T01:52:50;11.25;;;6.65;;
23228;SDS011;11783;50.350;6.576;2023-03-01T01:55:19;11.07;;;6.63;;
23228;SDS011;11783;50.350;6.576;2023-03-01T01:57:49;11.80;;;7.03;;
23228;SDS011;11783;50.350;6.576;2023-03-01T02:00:22;11.85;;;6.97;;
23228;SDS011;11783;50.350;6.576;2023-03-01T02:02:50;12.82;;;7.43;;
23228;SDS011;11783;50.350;6.576;2023-03-01T02:08:13;10.77;;;7.13;;
23228;SDS011;11783;50.350;6.576;2023-03-01T02:10:41;12.30;;;7.00;;
23228;SDS011;11783;50.350;6.576;2023-03-01T02:13:07;11.13;;;7.03;;
23228;SDS011;11783;50.350;6.576;2023-03-01T02:15:34;12.68;;;7.72;;
23228;SDS011;11783;50.350;6.576;2023-03-01T02:18:01;12.82;;;8.00;;
23228;SDS011;11783;50.350;6.576;2023-03-01T02:23:05;11.82;;;7.38;;
23228;SDS011;11783;50.350;6.576;2023-03-01T02:25:37;13.10;;;7.95;;
23228;SDS011;11783;50.350;6.576;2023-03-01T02:28:23;11.68;;;7.95;;
23228;SDS011;11783;50.350;6.576;2023-03-01T02:30:54;12.93;;;8.00;;
23228;SDS011;11783;50.350;6.576;2023-03-01T02:33:38;13.23;;;8.48;;
23228;SDS011;11783;50.350;6.576;2023-03-01T02:36:12;12.30;;;8.10;;
23228;SDS011;11783;50.350;6.576;2023-03-01T02:38:47;12.65;;;8.02;;
23228;SDS011;11783;50.350;6.576;2023-03-01T02:41:15;13.77;;;7.93;;
23228;SDS011;11783;50.350;6.576;2023-03-01T02:43:42;14.57;;;8.25;;
23228;SDS011;11783;50.350;6.576;2023-03-01T02:46:13;15.77;;;8.63;;
23228;SDS011;11783;50.350;6.576;2023-03-01T02:48:49;12.50;;;8.27;;
23228;SDS011;11783;50.350;6.576;2023-03-01T02:51:22;13.23;;;7.82;;
23228;SDS011;11783;50.350;6.576;2023-03-01T02:56:36;17.77;;;8.32;;
23228;SDS011;11783;50.350;6.576;2023-03-01T02:59:02;13.20;;;7.88;;
23228;SDS011;11783;50.350;6.576;2023-03-01T03:01:28;14.52;;;8.60;;
23228;SDS011;11783;50.350;6.576;2023-03-01T03:04:03;15.02;;;8.70;;
23228;SDS011;11783;50.350;6.576;2023-03-01T03:06:33;12.27;;;6.95;;
23228;SDS011;11783;50.350;6.576;2023-03-01T03:08:58;13.55;;;8.32;;
23228;SDS011;11783;50.350;6.576;2023-03-01T03:11:24;16.60;;;9.30;;
23228;SDS011;11783;50.350;6.576;2023-03-01T03:13:50;15.32;;;9.15;;
23228;SDS011;11783;50.350;6.576;2023-03-01T03:16:16;13.02;;;8.52;;
23228;SDS011;11783;50.350;6.576;2023-03-01T03:18:42;14.65;;;9.07;;
23228;SDS011;11783;50.350;6.576;2023-03-01T03:21:08;14.80;;;8.93;;
23228;SDS011;11783;50.350;6.576;2023-03-01T03:23:35;13.00;;;8.60;;
23228;SDS011;11783;50.350;6.576;2023-03-01T03:26:01;14.02;;;8.82;;
23228;SDS011;11783;50.350;6.576;2023-03-01T03:28:29;17.08;;;8.90;;
23228;SDS011;11783;50.350;6.576;2023-03-01T03:30:55;14.10;;;8.77;;
23228;SDS011;11783;50.350;6.576;2023-03-01T03:33:21;14.02;;;8.98;;
23228;SDS011;11783;50.350;6.576;2023-03-01T03:35:47;14.93;;;8.65;;
23228;SDS011;11783;50.350;6.576;2023-03-01T03:38:15;16.80;;;8.82;;
23228;SDS011;11783;50.350;6.576;2023-03-01T03:40:46;14.82;;;9.60;;
23228;SDS011;11783;50.350;6.576;2023-03-01T03:43:16;12.98;;;8.50;;
23228;SDS011;11783;50.350;6.576;2023-03-01T03:45:47;14.23;;;8.68;;
23228;SDS011;11783;50.350;6.576;2023-03-01T03:48:13;15.07;;;8.75;;
23228;SDS011;11783;50.350;6.576;2023-03-01T03:50:39;17.33;;;9.20;;
23228;SDS011;11783;50.350;6.576;2023-03-01T03:53:07;16.25;;;8.75;;
23228;SDS011;11783;50.350;6.576;2023-03-01T03:55:35;15.20;;;8.75;;
23228;SDS011;11783;50.350;6.576;2023-03-01T03:58:04;13.88;;;9.18;;
23228;SDS011;11783;50.350;6.576;2023-03-01T04:00:32;15.85;;;9.40;;
23228;SDS011;11783;50.350;6.576;2023-03-01T04:03:00;18.63;;;10.00;;
23228;SDS011;11783;50.350;6.576;2023-03-01T04:05:25;15.38;;;9.68;;
23228;SDS011;11783;50.350;6.576;2023-03-01T04:07:51;17.40;;;9.73;;
23228;SDS011;11783;50.350;6.576;2023-03-01T04:10:36;13.55;;;8.18;;
23228;SDS011;11783;50.350;6.576;2023-03-01T04:13:02;17.02;;;9.40;;
23228;SDS011;11783;50.350;6.576;2023-03-01T04:15:28;18.00;;;10.13;;
23228;SDS011;11783;50.350;6.576;2023-03-01T04:17:55;17.40;;;10.05;;
23228;SDS011;11783;50.350;6.576;2023-03-01T04:20:25;18.90;;;9.52;;
23228;SDS011;11783;50.350;6.576;2023-03-01T04:23:00;14.32;;;9.13;;
23228;SDS011;11783;50.350;6.576;2023-03-01T04:25:38;17.42;;;9.30;;
23228;SDS011;11783;50.350;6.576;2023-03-01T04:28:05;16.98;;;9.82;;
23228;SDS011;11783;50.350;6.576;2023-03-01T04:30:30;16.10;;;10.07;;
23228;SDS011;11783;50.350;6.576;2023-03-01T04:33:01;17.00;;;9.40;;
23228;SDS011;11783;50.350;6.576;2023-03-01T04:35:33;17.25;;;9.90;;
23228;SDS011;11783;50.350;6.576;2023-03-01T04:37:59;16.85;;;10.18;;
23228;SDS011;11783;50.350;6.576;2023-03-01T04:40:24;15.02;;;9.52;;
23228;SDS011;11783;50.350;6.576;2023-03-01T04:42:50;16.02;;;9.60;;
23228;SDS011;11783;50.350;6.576;2023-03-01T04:45:15;15.60;;;9.10;;
23228;SDS011;11783;50.350;6.576;2023-03-01T04:47:42;19.15;;;9.80;;
23228;SDS011;11783;50.350;6.576;2023-03-01T04:50:09;14.95;;;9.13;;
23228;SDS011;11783;50.350;6.576;2023-03-01T04:52:36;15.65;;;9.55;;
23228;SDS011;11783;50.350;6.576;2023-03-01T04:55:02;15.52;;;9.75;;
23228;SDS011;11783;50.350;6.576;2023-03-01T04:57:29;18.05;;;10.35;;
23228;SDS011;11783;50.350;6.576;2023-03-01T04:59:55;17.17;;;9.43;;
23228;SDS011;11783;50.350;6.576;2023-03-01T05:02:20;17.42;;;10.07;;
23228;SDS011;11783;50.350;6.576;2023-03-01T05:04:46;16.67;;;10.35;;
23228;SDS011;11783;50.350;6.576;2023-03-01T05:07:11;17.35;;;10.38;;
23228;SDS011;11783;50.350;6.576;2023-03-01T05:09:38;19.40;;;10.60;;
23228;SDS011;11783;50.350;6.576;2023-03-01T05:12:03;16.27;;;10.32;;
23228;SDS011;11783;50.350;6.576;2023-03-01T05:14:29;17.52;;;10.82;;
23228;SDS011;11783;50.350;6.576;2023-03-01T05:16:54;16.17;;;10.05;;
23228;SDS011;11783;50.350;6.576;2023-03-01T05:19:20;15.73;;;9.90;;
23228;SDS011;11783;50.350;6.576;2023-03-01T05:21:47;16.75;;;9.88;;
23228;SDS011;11783;50.350;6.576;2023-03-01T05:24:34;17.95;;;10.43;;
23228;SDS011;11783;50.350;6.576;2023-03-01T05:27:01;18.38;;;10.48;;
23228;SDS011;11783;50.350;6.576;2023-03-01T05:29:28;17.52;;;10.90;;
23228;SDS011;11783;50.350;6.576;2023-03-01T05:31:56;18.10;;;10.25;;
23228;SDS011;11783;50.350;6.576;2023-03-01T05:34:26;18.55;;;11.07;;
23228;SDS011;11783;50.350;6.576;2023-03-01T05:36:57;16.80;;;10.20;;
23228;SDS011;11783;50.350;6.576;2023-03-01T05:39:25;18.35;;;10.40;;
23228;SDS011;11783;50.350;6.576;2023-03-01T05:41:52;16.83;;;9.85;;
23228;SDS011;11783;50.350;6.576;2023-03-01T05:44:20;16.30;;;9.95;;
23228;SDS011;11783;50.350;6.576;2023-03-01T05:46:45;17.27;;;10.30;;
23228;SDS011;11783;50.350;6.576;2023-03-01T05:49:11;18.33;;;10.68;;
23228;SDS011;11783;50.350;6.576;2023-03-01T05:51:38;16.58;;;10.10;;
23228;SDS011;11783;50.350;6.576;2023-03-01T05:54:04;17.95;;;11.07;;
23228;SDS011;11783;50.350;6.576;2023-03-01T05:56:31;17.30;;;10.55;;
23228;SDS011;11783;50.350;6.576;2023-03-01T05:58:57;19.48;;;10.77;;
23228;SDS011;11783;50.350;6.576;2023-03-01T06:01:23;16.10;;;10.32;;
23228;SDS011;11783;50.350;6.576;2023-03-01T06:03:48;19.85;;;11.63;;
23228;SDS011;11783;50.350;6.576;2023-03-01T06:06:13;20.55;;;11.63;;
23228;SDS011;11783;50.350;6.576;2023-03-01T06:08:39;17.88;;;11.05;;
23228;SDS011;11783;50.350;6.576;2023-03-01T06:11:04;19.17;;;11.32;;
23228;SDS011;11783;50.350;6.576;2023-03-01T06:13:30;21.00;;;11.05;;
23228;SDS011;11783;50.350;6.576;2023-03-01T06:15:55;21.92;;;11.18;;
23228;SDS011;11783;50.350;6.576;2023-03-01T06:18:20;20.98;;;11.85;;
23228;SDS011;11783;50.350;6.576;2023-03-01T06:20:51;19.40;;;11.07;;
23228;SDS011;11783;50.350;6.576;2023-03-01T06:23:17;17.33;;;10.80;;
23228;SDS011;11783;50.350;6.576;2023-03-01T06:25:43;18.00;;;11.27;;
23228;SDS011;11783;50.350;6.576;2023-03-01T06:28:08;18.38;;;11.15;;
23228;SDS011;11783;50.350;6.576;2023-03-01T06:30:33;21.58;;;10.95;;
23228;SDS011;11783;50.350;6.576;2023-03-01T06:32:58;24.92;;;12.07;;
23228;SDS011;11783;50.350;6.576;2023-03-01T06:35:26;22.30;;;11.65;;
23228;SDS011;11783;50.350;6.576;2023-03-01T06:37:54;26.25;;;12.65;;
23228;SDS011;11783;50.350;6.576;2023-03-01T06:40:20;19.67;;;11.35;;
23228;SDS011;11783;50.350;6.576;2023-03-01T06:42:47;20.83;;;11.93;;
23228;SDS011;11783;50.350;6.576;2023-03-01T06:45:14;22.80;;;12.32;;
23228;SDS011;11783;50.350;6.576;2023-03-01T06:47:39;20.35;;;11.48;;
23228;SDS011;11783;50.350;6.576;2023-03-01T06:50:05;22.05;;;11.55;;
23228;SDS011;11783;50.350;6.576;2023-03-01T06:52:31;21.25;;;11.73;;
23228;SDS011;11783;50.350;6.576;2023-03-01T06:54:56;22.65;;;11.88;;
23228;SDS011;11783;50.350;6.576;2023-03-01T06:57:21;20.70;;;11.60;;
23228;SDS011;11783;50.350;6.576;2023-03-01T06:59:47;19.55;;;11.25;;
23228;SDS011;11783;50.350;6.576;2023-03-01T07:02:13;21.10;;;11.27;;
23228;SDS011;11783;50.350;6.576;2023-03-01T07:04:39;19.50;;;10.85;;
23228;SDS011;11783;50.350;6.576;2023-03-01T07:07:05;18.90;;;11.38;;
23228;SDS011;11783;50.350;6.576;2023-03-01T07:09:31;21.48;;;11.57;;
23228;SDS011;11783;50.350;6.576;2023-03-01T07:11:56;20.80;;;11.70;;
23228;SDS011;11783;50.350;6.576;2023-03-01T07:14:22;21.23;;;12.45;;
23228;SDS011;11783;50.350;6.576;2023-03-01T07:16:51;24.55;;;12.52;;
23228;SDS011;11783;50.350;6.576;2023-03-01T07:19:20;21.17;;;12.25;;
23228;SDS011;11783;50.350;6.576;2023-03-01T07:21:46;22.42;;;13.13;;
23228;SDS011;11783;50.350;6.576;2023-03-01T07:24:11;19.67;;;11.70;;
23228;SDS011;11783;50.350;6.576;2023-03-01T07:26:37;20.55;;;12.63;;
23228;SDS011;11783;50.350;6.576;2023-03-01T07:29:03;23.05;;;12.38;;
23228;SDS011;11783;50.350;6.576;2023-03-01T07:31:30;23.35;;;13.10;;
23228;SDS011;11783;50.350;6.576;2023-03-01T07:33:55;20.05;;;12.38;;
23228;SDS011;11783;50.350;6.576;2023-03-01T07:36:21;23.10;;;12.60;;
23228;SDS011;11783;50.350;6.576;2023-03-01T07:38:47;23.27;;;13.63;;
23228;SDS011;11783;50.350;6.576;2023-03-01T07:41:12;21.50;;;12.73;;
23228;SDS011;11783;50.350;6.576;2023-03-01T07:43:38;23.15;;;13.10;;
23228;SDS011;11783;50.350;6.576;2023-03-01T07:46:03;27.50;;;15.40;;
23228;SDS011;11783;50.350;6.576;2023-03-01T07:48:29;23.80;;;14.38;;
23228;SDS011;11783;50.350;6.576;2023-03-01T07:50:59;28.23;;;14.27;;
23228;SDS011;11783;50.350;6.576;2023-03-01T07:53:25;27.30;;;14.25;;
23228;SDS011;11783;50.350;6.576;2023-03-01T07:55:59;24.83;;;13.27;;
23228;SDS011;11783;50.350;6.576;2023-03-01T07:58:29;23.63;;;14.43;;
23228;SDS011;11783;50.350;6.576;2023-03-01T08:00:56;21.52;;;12.30;;
23228;SDS011;11783;50.350;6.576;2023-03-01T08:03:21;27.92;;;15.73;;
23228;SDS011;11783;50.350;6.576;2023-03-01T08:05:46;27.52;;;16.15;;
23228;SDS011;11783;50.350;6.576;2023-03-01T08:08:12;30.10;;;15.73;;
23228;SDS011;11783;50.350;6.576;2023-03-01T08:10:37;26.23;;;15.80;;
23228;SDS011;11783;50.350;6.576;2023-03-01T08:13:02;27.23;;;15.48;;
23228;SDS011;11783;50.350;6.576;2023-03-01T08:15:28;29.55;;;15.82;;
23228;SDS011;11783;50.350;6.576;2023-03-01T08:17:53;34.20;;;17.80;;
23228;SDS011;11783;50.350;6.576;2023-03-01T08:20:18;31.67;;;18.65;;
23228;SDS011;11783;50.350;6.576;2023-03-01T08:22:44;30.40;;;17.27;;
23228;SDS011;11783;50.350;6.576;2023-03-01T08:25:09;33.00;;;17.92;;
23228;SDS011;11783;50.350;6.576;2023-03-01T08:27:34;34.35;;;18.83;;
23228;SDS011;11783;50.350;6.576;2023-03-01T08:30:00;32.35;;;18.02;;
23228;SDS011;11783;50.350;6.576;2023-03-01T08:32:25;29.75;;;17.08;;
23228;SDS011;11783;50.350;6.576;2023-03-01T08:34:51;34.88;;;20.23;;
23228;SDS011;11783;50.350;6.576;2023-03-01T08:37:16;33.92;;;19.33;;
23228;SDS011;11783;50.350;6.576;2023-03-01T08:39:41;31.63;;;18.10;;
23228;SDS011;11783;50.350;6.576;2023-03-01T08:42:07;28.67;;;16.88;;
23228;SDS011;11783;50.350;6.576;2023-03-01T08:44:32;28.38;;;16.15;;
23228;SDS011;11783;50.350;6.576;2023-03-01T08:46:58;25.83;;;15.05;;
23228;SDS011;11783;50.350;6.576;2023-03-01T08:49:25;22.67;;;14.88;;
23228;SDS011;11783;50.350;6.576;2023-03-01T08:51:50;25.20;;;14.73;;
23228;SDS011;11783;50.350;6.576;2023-03-01T08:54:16;25.60;;;15.25;;
23228;SDS011;11783;50.350;6.576;2023-03-01T08:56:44;25.38;;;14.50;;
23228;SDS011;11783;50.350;6.576;2023-03-01T08:59:13;23.67;;;14.98;;
23228;SDS011;11783;50.350;6.576;2023-03-01T09:01:40;24.98;;;14.45;;
23228;SDS011;11783;50.350;6.576;2023-03-01T09:04:08;24.17;;;14.02;;
23228;SDS011;11783;50.350;6.576;2023-03-01T09:06:33;24.70;;;13.95;;
23228;SDS011;11783;50.350;6.576;2023-03-01T09:08:59;25.98;;;14.85;;
23228;SDS011;11783;50.350;6.576;2023-03-01T09:11:26;23.65;;;14.00;;
23228;SDS011;11783;50.350;6.576;2023-03-01T09:13:52;27.67;;;15.30;;
23228;SDS011;11783;50.350;6.576;2023-03-01T09:16:18;23.67;;;14.00;;
23228;SDS011;11783;50.350;6.576;2023-03-01T09:18:53;25.75;;;14.60;;
23228;SDS011;11783;50.350;6.576;2023-03-01T09:21:19;25.13;;;15.13;;
23228;SDS011;11783;50.350;6.576;2023-03-01T09:23:47;26.00;;;14.93;;
23228;SDS011;11783;50.350;6.576;2023-03-01T09:26:17;22.75;;;13.90;;
23228;SDS011;11783;50.350;6.576;2023-03-01T09:28:46;27.00;;;14.70;;
23228;SDS011;11783;50.350;6.576;2023-03-01T09:31:12;26.50;;;13.98;;
23228;SDS011;11783;50.350;6.576;2023-03-01T09:33:39;23.05;;;13.90;;
23228;SDS011;11783;50.350;6.576;2023-03-01T09:36:07;24.02;;;13.88;;
23228;SDS011;11783;50.350;6.576;2023-03-01T09:38:37;23.70;;;13.90;;
23228;SDS011;11783;50.350;6.576;2023-03-01T09:41:08;21.95;;;13.40;;
23228;SDS011;11783;50.350;6.576;2023-03-01T09:46:13;22.92;;;13.65;;
23228;SDS011;11783;50.350;6.576;2023-03-01T09:48:46;22.13;;;13.07;;
23228;SDS011;11783;50.350;6.576;2023-03-01T09:51:23;25.05;;;14.40;;
23228;SDS011;11783;50.350;6.576;2023-03-01T09:53:54;22.95;;;14.02;;
23228;SDS011;11783;50.350;6.576;2023-03-01T09:56:24;22.92;;;14.00;;
23228;SDS011;11783;50.350;6.576;2023-03-01T10:02:03;23.08;;;13.95;;
23228;SDS011;11783;50.350;6.576;2023-03-01T10:07:15;23.13;;;13.57;;
23228;SDS011;11783;50.350;6.576;2023-03-01T10:12:35;23.40;;;13.75;;
23228;SDS011;11783;50.350;6.576;2023-03-01T10:18:10;23.08;;;13.73;;
23228;SDS011;11783;50.350;6.576;2023-03-01T10:20:53;22.85;;;14.15;;
23228;SDS011;11783;50.350;6.576;2023-03-01T10:23:23;22.92;;;13.55;;
23228;SDS011;11783;50.350;6.576;2023-03-01T10:31:21;17.47;;;11.83;;
23228;SDS011;11783;50.350;6.576;2023-03-01T10:33:52;22.92;;;13.75;;
23228;SDS011;11783;50.350;6.576;2023-03-01T10:36:20;22.75;;;14.20;;
23228;SDS011;11783;50.350;6.576;2023-03-01T10:38:51;21.20;;;13.98;;
23228;SDS011;11783;50.350;6.576;2023-03-01T10:41:19;24.05;;;14.85;;
23228;SDS011;11783;50.350;6.576;2023-03-01T10:43:50;21.60;;;13.63;;
23228;SDS011;11783;50.350;6.576;2023-03-01T10:51:41;19.95;;;13.48;;
23228;SDS011;11783;50.350;6.576;2023-03-01T10:54:28;23.15;;;14.00;;
23228;SDS011;11783;50.350;6.576;2023-03-01T10:56:56;18.98;;;12.60;;
23228;SDS011;11783;50.350;6.576;2023-03-01T11:04:39;21.40;;;13.18;;
23228;SDS011;11783;50.350;6.576;2023-03-01T11:07:07;21.33;;;13.35;;
23228;SDS011;11783;50.350;6.576;2023-03-01T11:09:33;19.50;;;12.98;;
23228;SDS011;11783;50.350;6.576;2023-03-01T11:12:05;21.27;;;13.13;;
23228;SDS011;11783;50.350;6.576;2023-03-01T11:14:39;20.15;;;12.63;;
23228;SDS011;11783;50.350;6.576;2023-03-01T11:17:13;18.55;;;12.73;;
23228;SDS011;11783;50.350;6.576;2023-03-01T11:19:59;18.38;;;11.98;;
23228;SDS011;11783;50.350;6.576;2023-03-01T11:22:29;20.92;;;13.20;;
23228;SDS011;11783;50.350;6.576;2023-03-01T11:24:56;19.65;;;12.60;;
23228;SDS011;11783;50.350;6.576;2023-03-01T11:27:28;19.73;;;12.63;;
23228;SDS011;11783;50.350;6.576;2023-03-01T11:29:57;19.38;;;12.00;;
23228;SDS011;11783;50.350;6.576;2023-03-01T11:32:25;18.73;;;12.68;;
23228;SDS011;11783;50.350;6.576;2023-03-01T11:34:57;20.00;;;12.75;;
23228;SDS011;11783;50.350;6.576;2023-03-01T11:40:24;21.90;;;13.15;;
23228;SDS011;11783;50.350;6.576;2023-03-01T11:42:56;20.90;;;13.20;;
23228;SDS011;11783;50.350;6.576;2023-03-01T11:48:01;20.65;;;12.00;;
23228;SDS011;11783;50.350;6.576;2023-03-01T11:50:35;19.20;;;11.85;;
23228;SDS011;11783;50.350;6.576;2023-03-01T11:53:18;19.52;;;12.43;;
23228;SDS011;11783;50.350;6.576;2023-03-01T11:56:13;19.23;;;12.15;;
23228;SDS011;11783;50.350;6.576;2023-03-01T12:12:47;18.83;;;12.02;;
23228;SDS011;11783;50.350;6.576;2023-03-01T12:15:47;20.20;;;12.77;;
23228;SDS011;11783;50.350;6.576;2023-03-01T12:29:31;17.65;;;11.85;;
23228;SDS011;11783;50.350;6.576;2023-03-01T12:51:18;22.45;;;13.68;;
23228;SDS011;11783;50.350;6.576;2023-03-01T12:53:50;19.35;;;12.23;;
23228;SDS011;11783;50.350;6.576;2023-03-01T12:56:22;18.90;;;12.55;;
23228;SDS011;11783;50.350;6.576;2023-03-01T12:58:56;20.92;;;13.07;;
23228;SDS011;11783;50.350;6.576;2023-03-01T13:09:41;19.45;;;12.23;;
23228;SDS011;11783;50.350;6.576;2023-03-01T13:15:32;20.33;;;13.85;;
23228;SDS011;11783;50.350;6.576;2023-03-01T13:20:32;20.88;;;13.18;;
23228;SDS011;11783;50.350;6.576;2023-03-01T13:31:01;17.65;;;12.07;;
23228;SDS011;11783;50.350;6.576;2023-03-01T13:35:59;16.00;;;11.05;;
23228;SDS011;11783;50.350;6.576;2023-03-01T13:46:48;18.10;;;11.32;;
23228;SDS011;11783;50.350;6.576;2023-03-01T13:49:16;17.27;;;11.32;;
23228;SDS011;11783;50.350;6.576;2023-03-01T13:51:46;20.23;;;11.63;;
23228;SDS011;11783;50.350;6.576;2023-03-01T13:54:14;18.63;;;12.18;;
23228;SDS011;11783;50.350;6.576;2023-03-01T13:56:40;18.95;;;12.07;;
23228;SDS011;11783;50.350;6.576;2023-03-01T14:01:40;18.42;;;11.35;;
23228;SDS011;11783;50.350;6.576;2023-03-01T14:04:26;19.83;;;11.57;;
23228;SDS011;11783;50.350;6.576;2023-03-01T14:07:12;15.85;;;11.40;;
23228;SDS011;11783;50.350;6.576;2023-03-01T14:09:43;20.35;;;13.30;;
23228;SDS011;11783;50.350;6.576;2023-03-01T14:12:26;20.20;;;13.48;;
23228;SDS011;11783;50.350;6.576;2023-03-01T14:15:22;19.17;;;12.70;;
23228;SDS011;11783;50.350;6.576;2023-03-01T14:20:33;15.93;;;10.32;;
23228;SDS011;11783;50.350;6.576;2023-03-01T14:23:09;21.00;;;12.50;;
23228;SDS011;11783;50.350;6.576;2023-03-01T14:25:38;18.90;;;12.95;;
23228;SDS011;11783;50.350;6.576;2023-03-01T14:28:44;17.42;;;12.50;;
23228;SDS011;11783;50.350;6.576;2023-03-01T14:31:21;18.52;;;12.30;;
23228;SDS011;11783;50.350;6.576;2023-03-01T14:33:57;18.52;;;12.80;;
23228;SDS011;11783;50.350;6.576;2023-03-01T14:36:27;15.93;;;11.30;;
23228;SDS011;11783;50.350;6.576;2023-03-01T14:38:55;19.63;;;12.70;;
23228;SDS011;11783;50.350;6.576;2023-03-01T14:41:24;16.10;;;11.20;;
23228;SDS011;11783;50.350;6.576;2023-03-01T14:43:54;15.60;;;11.13;;
23228;SDS011;11783;50.350;6.576;2023-03-01T14:46:40;14.98;;;11.20;;
23228;SDS011;11783;50.350;6.576;2023-03-01T14:51:50;16.35;;;11.43;;
23228;SDS011;11783;50.350;6.576;2023-03-01T14:54:29;14.95;;;10.57;;
23228;SDS011;11783;50.350;6.576;2023-03-01T14:57:03;17.83;;;11.63;;
23228;SDS011;11783;50.350;6.576;2023-03-01T14:59:29;18.63;;;11.38;;
23228;SDS011;11783;50.350;6.576;2023-03-01T15:01:55;16.13;;;10.88;;
23228;SDS011;11783;50.350;6.576;2023-03-01T15:04:23;16.08;;;11.40;;
23228;SDS011;11783;50.350;6.576;2023-03-01T15:06:51;15.88;;;11.10;;
23228;SDS011;11783;50.350;6.576;2023-03-01T15:09:17;17.08;;;11.23;;
23228;SDS011;11783;50.350;6.576;2023-03-01T15:11:44;15.77;;;10.48;;
23228;SDS011;11783;50.350;6.576;2023-03-01T15:17:05;15.43;;;10.18;;
23228;SDS011;11783;50.350;6.576;2023-03-01T15:19:39;13.57;;;9.55;;
23228;SDS011;11783;50.350;6.576;2023-03-01T15:22:05;16.85;;;10.02;;
23228;SDS011;11783;50.350;6.576;2023-03-01T15:24:39;13.98;;;10.00;;
23228;SDS011;11783;50.350;6.576;2023-03-01T15:27:04;15.18;;;10.45;;
23228;SDS011;11783;50.350;6.576;2023-03-01T15:29:33;13.70;;;9.65;;
23228;SDS011;11783;50.350;6.576;2023-03-01T15:34:52;15.65;;;9.75;;
23228;SDS011;11783;50.350;6.576;2023-03-01T15:40:02;13.45;;;8.63;;
23228;SDS011;11783;50.350;6.576;2023-03-01T15:45:10;16.08;;;9.95;;
23228;SDS011;11783;50.350;6.576;2023-03-01T15:47:58;17.05;;;9.40;;
23228;SDS011;11783;50.350;6.576;2023-03-01T15:50:35;12.90;;;9.38;;
23228;SDS011;11783;50.350;6.576;2023-03-01T15:53:06;13.88;;;9.48;;
23228;SDS011;11783;50.350;6.576;2023-03-01T15:55:36;13.75;;;8.82;;
23228;SDS011;11783;50.350;6.576;2023-03-01T15:58:20;13.00;;;8.60;;
23228;SDS011;11783;50.350;6.576;2023-03-01T16:00:48;14.02;;;9.23;;
23228;SDS011;11783;50.350;6.576;2023-03-01T16:03:16;17.40;;;10.05;;
23228;SDS011;11783;50.350;6.576;2023-03-01T16:05:46;15.55;;;9.50;;
23228;SDS011;11783;50.350;6.576;2023-03-01T16:08:13;15.75;;;9.27;;
23228;SDS011;11783;50.350;6.576;2023-03-01T16:10:40;15.70;;;9.32;;
23228;SDS011;11783;50.350;6.576;2023-03-01T16:13:08;16.33;;;9.20;;
23228;SDS011;11783;50.350;6.576;2023-03-01T16:15:34;14.73;;;9.23;;
23228;SDS011;11783;50.350;6.576;2023-03-01T16:18:00;13.48;;;8.73;;
23228;SDS011;11783;50.350;6.576;2023-03-01T16:20:27;15.15;;;8.80;;
23228;SDS011;11783;50.350;6.576;2023-03-01T16:22:53;13.55;;;8.75;;
23228;SDS011;11783;50.350;6.576;2023-03-01T16:25:20;18.17;;;8.80;;
23228;SDS011;11783;50.350;6.576;2023-03-01T16:27:46;16.20;;;8.75;;
23228;SDS011;11783;50.350;6.576;2023-03-01T16:30:14;14.80;;;8.85;;
23228;SDS011;11783;50.350;6.576;2023-03-01T16:32:42;14.38;;;9.20;;
23228;SDS011;11783;50.350;6.576;2023-03-01T16:35:09;14.15;;;8.80;;
23228;SDS011;11783;50.350;6.576;2023-03-01T16:37:36;14.43;;;9.43;;
23228;SDS011;11783;50.350;6.576;2023-03-01T16:40:06;14.13;;;8.73;;
23228;SDS011;11783;50.350;6.576;2023-03-01T16:42:40;14.60;;;8.82;;
23228;SDS011;11783;50.350;6.576;2023-03-01T16:45:07;14.52;;;10.02;;
23228;SDS011;11783;50.350;6.576;2023-03-01T16:47:33;18.95;;;10.43;;
23228;SDS011;11783;50.350;6.576;2023-03-01T16:49:58;13.63;;;8.82;;
23228;SDS011;11783;50.350;6.576;2023-03-01T16:52:24;14.25;;;9.15;;
23228;SDS011;11783;50.350;6.576;2023-03-01T16:54:49;393.25;;;121.60;;
23228;SDS011;11783;50.350;6.576;2023-03-01T16:57:14;410.38;;;123.90;;
23228;SDS011;11783;50.350;6.576;2023-03-01T16:59:41;512.50;;;168.27;;